Time;durP1;ratioP1;P1;durP2;ratioP2;P2;SDS_P1;SDS_P2;PMS_P1;PMS_P2;Temp;Humidity;BMP_temperature;BMP_pressure;BME280_temperature;BME280_humidity;BME280_pressure;Samples;Min_cycle;Max_cycle;Signal;HPM_P1;HPM_P2
2020/12/20 00:01:04;;;;;;;34.65;20.08;;;;;;;4.58;70.99;96174.19;5049827;28;20263;-62
2020/12/20 00:03:31;;;;;;;32.10;18.95;;;;;;;4.62;70.71;96168.41;5050345;28;20219;-60
2020/12/20 00:05:58;;;;;;;33.65;19.38;;;;;;;4.70;70.33;96165.69;5050498;28;20181;-63
2020/12/20 00:08:24;;;;;;;32.40;19.70;;;;;;;4.73;70.06;96174.88;5050075;28;20199;-63
2020/12/20 00:10:51;;;;;;;34.25;19.58;;;;;;;4.71;70.36;96171.66;5049398;28;20208;-62
2020/12/20 00:13:21;;;;;;;31.23;18.75;;;;;;;4.71;70.43;96172.47;5050005;28;20288;-62
2020/12/20 00:15:48;;;;;;;32.67;20.02;;;;;;;4.71;70.33;96169.88;5048955;28;20197;-63
2020/12/20 00:18:15;;;;;;;33.47;19.85;;;;;;;4.65;70.69;96173.22;5049649;28;20211;-62
2020/12/20 00:20:41;;;;;;;33.90;20.15;;;;;;;4.67;70.44;96175.66;5049368;28;20250;-62
2020/12/20 00:23:08;;;;;;;34.78;21.45;;;;;;;4.59;71.09;96173.97;5049729;28;21008;-63
2020/12/20 00:25:34;;;;;;;39.47;21.90;;;;;;;4.51;71.06;96176.69;5048907;28;20189;-61
2020/12/20 00:28:01;;;;;;;45.53;23.20;;;;;;;4.42;71.63;96174.41;5049433;28;20189;-63
2020/12/20 00:30:27;;;;;;;38.13;22.60;;;;;;;4.33;72.27;96176.34;5049247;28;20619;-62
2020/12/20 00:32:54;;;;;;;37.92;22.35;;;;;;;4.44;71.65;96175.84;5049415;28;20335;-61
2020/12/20 00:35:20;;;;;;;41.25;23.02;;;;;;;4.47;71.65;96167.66;5048965;28;20286;-63
2020/12/20 00:37:47;;;;;;;35.35;21.88;;;;;;;4.50;71.47;96179.47;5049124;28;20685;-63
2020/12/20 00:40:14;;;;;;;41.50;23.17;;;;;;;4.52;71.29;96178.31;5049059;28;20200;-61
2020/12/20 00:42:40;;;;;;;38.97;23.10;;;;;;;4.46;71.79;96171.28;5052291;28;20227;-62
2020/12/20 00:45:07;;;;;;;36.00;22.23;;;;;;;4.47;71.48;96174.69;5047839;28;20377;-62
2020/12/20 00:47:34;;;;;;;32.75;21.08;;;;;;;4.28;71.63;96149.34;5049737;28;20201;-61
2020/12/20 00:50:01;;;;;;;35.47;20.08;;;;;;;4.38;72.18;96173.97;5047265;28;20197;-61
2020/12/20 00:52:28;;;;;;;29.92;18.13;;;;;;;4.56;71.18;96184.72;5048360;28;20224;-61
2020/12/20 00:54:58;;;;;;;26.08;15.82;;;;;;;4.51;71.20;96176.69;5047493;28;20243;-62
2020/12/20 00:57:24;;;;;;;25.73;16.92;;;;;;;4.32;71.69;96172.16;5049085;28;20648;-62
2020/12/20 00:59:52;;;;;;;24.73;16.25;;;;;;;4.33;71.60;96173.75;5048226;28;20663;-62
2020/12/20 01:02:20;;;;;;;28.75;16.17;;;;;;;4.29;72.14;96163.94;5050699;28;20273;-63
2020/12/20 01:04:48;;;;;;;26.42;16.52;;;;;;;4.32;71.46;96166.16;5063755;28;20204;-63
2020/12/20 01:07:15;;;;;;;26.08;16.27;;;;;;;4.42;71.19;96171.81;5049295;28;20288;-63
2020/12/20 01:09:48;;;;;;;25.75;15.70;;;;;;;4.31;71.05;96167.13;5047304;28;20196;-63
2020/12/20 01:12:17;;;;;;;29.27;17.15;;;;;;;4.18;71.45;96170.38;5047712;28;20262;-63
2020/12/20 01:15:19;;;;;;;26.40;16.20;;;;;;;4.18;71.43;96160.00;5047590;28;20215;-64
2020/12/20 01:17:49;;;;;;;28.08;17.48;;;;;;;4.23;71.52;96157.69;5064906;28;20250;-63
2020/12/20 01:20:18;;;;;;;27.50;16.55;;;;;;;4.17;71.58;96158.41;5051104;28;20251;-64
2020/12/20 01:22:47;;;;;;;29.92;17.48;;;;;;;4.17;71.43;96161.00;5053013;28;20220;-63
2020/12/20 01:25:14;;;;;;;29.17;17.02;;;;;;;4.21;71.55;96159.66;5050776;28;20204;-63
2020/12/20 01:27:49;;;;;;;26.80;15.90;;;;;;;4.31;71.34;96154.94;5051574;28;20307;-63
2020/12/20 01:30:16;;;;;;;26.77;16.92;;;;;;;4.15;72.06;96160.41;5050976;28;20299;-63
2020/12/20 01:32:42;;;;;;;27.40;15.93;;;;;;;4.28;71.97;96160.53;5051173;28;20232;-62
2020/12/20 01:35:10;;;;;;;29.25;17.48;;;;;;;4.31;71.53;96149.75;5052229;28;20726;-63
2020/12/20 01:37:39;;;;;;;26.67;17.08;;;;;;;4.37;71.27;96149.03;5052848;28;20204;-64
2020/12/20 01:40:08;;;;;;;29.63;17.42;;;;;;;4.49;70.95;96155.31;5067667;28;20216;-61
2020/12/20 01:42:35;;;;;;;29.10;17.17;;;;;;;4.48;71.09;96145.94;5051297;28;20224;-61
2020/12/20 01:45:05;;;;;;;31.30;18.60;;;;;;;4.47;71.11;96144.31;5050501;28;20212;-59
2020/12/20 01:47:37;;;;;;;28.80;18.10;;;;;;;4.51;71.03;96150.75;5067817;28;20204;-62
2020/12/20 01:50:09;;;;;;;29.02;18.23;;;;;;;4.55;70.73;96153.75;5052056;28;20603;-61
2020/12/20 01:52:36;;;;;;;30.75;18.05;;;;;;;4.54;70.87;96152.16;5050941;28;20678;-63
2020/12/20 01:55:07;;;;;;;29.27;18.02;;;;;;;4.38;71.42;96155.81;5050574;28;20578;-63
2020/12/20 01:57:48;;;;;;;27.33;17.33;;;;;;;4.39;71.17;96152.25;5050881;28;20189;-62
2020/12/20 02:00:25;;;;;;;29.40;17.75;;;;;;;4.48;71.22;96145.13;5050420;28;20204;-61
2020/12/20 02:03:11;;;;;;;30.30;18.35;;;;;;;4.38;71.21;96149.84;5052130;28;20228;-62
2020/12/20 02:05:41;;;;;;;29.80;17.48;;;;;;;4.49;70.77;96155.31;5050032;28;20226;-64
2020/12/20 02:08:08;;;;;;;29.02;17.73;;;;;;;4.49;70.69;96147.53;5052001;28;20203;-62
2020/12/20 02:10:35;;;;;;;32.55;17.58;;;;;;;4.46;70.38;96142.72;5050170;28;20588;-63
2020/12/20 02:13:03;;;;;;;28.75;17.85;;;;;;;4.47;70.49;96149.50;5052511;28;20214;-61
2020/12/20 02:15:36;;;;;;;29.73;18.40;;;;;;;4.44;71.10;96149.88;5050315;28;20663;-63
2020/12/20 02:18:02;;;;;;;28.95;17.50;;;;;;;4.50;70.45;96151.75;5050789;28;20201;-63
2020/12/20 02:20:33;;;;;;;29.70;18.75;;;;;;;4.48;70.71;96145.94;5050302;28;20196;-62
2020/12/20 02:23:04;;;;;;;29.40;17.92;;;;;;;4.56;70.28;96152.78;5051509;28;20733;-62
2020/12/20 02:25:40;;;;;;;32.85;18.85;;;;;;;4.44;70.72;96147.28;5049761;28;20196;-62
2020/12/20 02:28:20;;;;;;;31.38;19.88;;;;;;;4.43;71.07;96148.28;5050467;28;20207;-63
2020/12/20 02:30:55;;;;;;;31.42;19.60;;;;;;;4.43;70.93;96148.28;5050087;28;20255;-64
2020/12/20 02:33:25;;;;;;;34.85;19.67;;;;;;;4.42;70.80;96141.47;5053866;28;20235;-62
2020/12/20 02:35:53;;;;;;;32.17;19.45;;;;;;;4.46;70.84;96147.91;5053722;28;20581;-62
2020/12/20 02:38:20;;;;;;;39.45;21.50;;;;;;;4.45;71.17;96146.31;5050105;28;20239;-63
2020/12/20 02:41:06;;;;;;;34.00;20.05;;;;;;;4.32;71.17;96130.63;5067621;28;20283;-61
2020/12/20 02:43:34;;;;;;;34.08;19.67;;;;;;;4.37;71.34;96138.66;5049375;28;20761;-64
2020/12/20 02:46:04;;;;;;;35.13;20.48;;;;;;;4.45;71.38;96146.31;5049795;28;20200;-61
2020/12/20 02:48:31;;;;;;;35.97;21.33;;;;;;;4.43;71.23;96140.50;5049320;28;20330;-63
2020/12/20 02:50:57;;;;;;;36.58;20.65;;;;;;;4.38;71.27;96134.28;5050028;28;20623;-62
2020/12/20 02:53:25;;;;;;;34.03;20.90;;;;;;;4.22;70.97;96101.59;5049707;28;20201;-62
2020/12/20 02:55:51;;;;;;;36.50;20.67;;;;;;;4.44;71.07;96139.50;5066028;28;20250;-61
2020/12/20 02:58:18;;;;;;;33.75;20.63;;;;;;;4.39;71.47;96147.06;5049959;28;20200;-61
2020/12/20 03:00:54;;;;;;;36.55;21.42;;;;;;;4.26;71.56;96140.94;5051295;28;20193;-62
2020/12/20 03:03:22;;;;;;;33.20;20.63;;;;;;;4.33;71.51;96142.59;5066155;28;20251;-61
2020/12/20 03:05:52;;;;;;;38.65;21.85;;;;;;;4.41;71.64;96142.47;5065842;28;20200;-61
2020/12/20 03:08:19;;;;;;;36.50;21.65;;;;;;;4.48;71.20;96145.13;5049424;28;20270;-61
2020/12/20 03:10:46;;;;;;;37.88;22.95;;;;;;;4.44;70.98;96143.88;5050347;28;20203;-61
2020/12/20 03:13:13;;;;;;;37.85;22.30;;;;;;;4.50;71.11;96145.75;5066290;28;20274;-62
2020/12/20 03:15:43;;;;;;;35.85;21.63;;;;;;;4.47;71.26;96138.34;5048649;28;20214;-63
2020/12/20 03:18:14;;;;;;;38.65;21.92;;;;;;;4.57;71.29;96139.63;5050614;28;20659;-62
2020/12/20 03:20:54;;;;;;;34.38;22.00;;;;;;;4.57;71.13;96131.84;5049298;28;20200;-61
2020/12/20 03:23:21;;;;;;;37.88;22.45;;;;;;;4.68;71.13;96130.50;5048983;28;20355;-62
2020/12/20 03:26:07;;;;;;;39.22;21.65;;;;;;;4.64;70.87;96129.28;5050547;28;20674;-61
2020/12/20 03:28:52;;;;;;;36.72;22.45;;;;;;;4.61;71.39;96124.47;5049918;28;20208;-60
2020/12/20 03:31:41;;;;;;;38.55;21.90;;;;;;;4.50;71.49;96138.75;5049887;28;20213;-61
2020/12/20 03:34:23;;;;;;;37.40;21.30;;;;;;;4.59;71.50;96132.44;5065043;28;20230;-63
2020/12/20 03:37:00;;;;;;;37.53;22.35;;;;;;;4.52;71.57;96133.38;5048836;28;20207;-61
2020/12/20 03:39:30;;;;;;;38.05;22.38;;;;;;;4.45;71.69;96125.56;5048517;28;20336;-64
2020/12/20 03:41:57;;;;;;;38.40;22.20;;;;;;;4.42;71.85;96136.28;5047972;28;20291;-62
2020/12/20 03:44:24;;;;;;;38.30;21.70;;;;;;;4.38;71.73;96136.88;5048473;28;20200;-62
2020/12/20 03:46:53;;;;;;;39.03;22.70;;;;;;;4.28;72.14;96133.78;5048412;28;20196;-61
2020/12/20 03:49:21;;;;;;;39.17;22.58;;;;;;;4.34;72.06;96138.22;5048420;28;20228;-63
2020/12/20 03:51:48;;;;;;;38.97;21.88;;;;;;;4.36;72.00;96142.22;5048656;28;20196;-61
2020/12/20 03:54:17;;;;;;;38.13;22.73;;;;;;;4.33;72.24;96142.59;5064952;28;20204;-63
2020/12/20 03:56:44;;;;;;;38.65;22.15;;;;;;;4.41;72.14;96136.47;5050412;28;20185;-62
2020/12/20 03:59:18;;;;;;;38.25;23.23;;;;;;;4.37;72.08;96138.66;5048852;28;20207;-62
2020/12/20 04:01:45;;;;;;;41.47;23.63;;;;;;;4.40;72.17;96133.06;5049806;28;20196;-62
2020/12/20 04:04:12;;;;;;;40.40;22.73;;;;;;;4.34;72.13;96133.84;5049741;28;20623;-63
2020/12/20 04:06:41;;;;;;;43.53;23.65;;;;;;;4.44;72.16;96139.50;5050891;28;20204;-61
2020/12/20 04:09:08;;;;;;;38.88;22.25;;;;;;;4.50;71.74;96143.97;5065932;28;20208;-62
2020/12/20 04:11:53;;;;;;;42.40;23.40;;;;;;;4.43;71.83;96143.09;5065081;28;20822;-63
2020/12/20 04:14:22;;;;;;;45.20;23.85;;;;;;;4.52;71.95;96141.16;5047977;28;20220;-62
2020/12/20 04:16:50;;;;;;;44.47;22.95;;;;;;;4.47;71.47;96138.34;5048477;28;20214;-62
2020/12/20 04:19:19;;;;;;;45.42;23.17;;;;;;;4.46;72.02;96141.91;5047844;28;20288;-62
2020/12/20 04:21:52;;;;;;;44.63;24.13;;;;;;;4.50;72.28;96150.94;5064778;28;20586;-62
2020/12/20 04:24:42;;;;;;;42.72;22.83;;;;;;;4.54;72.08;96142.59;5050986;28;20323;-62
2020/12/20 04:27:09;;;;;;;46.60;24.38;;;;;;;4.51;72.42;96140.34;5048029;28;20701;-62
2020/12/20 04:29:46;;;;;;;47.92;25.23;;;;;;;4.59;72.08;96153.22;5064610;28;20203;-60
2020/12/20 04:32:13;;;;;;;47.92;26.02;;;;;;;4.61;71.75;96148.63;5047772;28;20200;-62
2020/12/20 04:34:40;;;;;;;42.95;24.13;;;;;;;4.50;72.62;96143.97;5049175;28;20259;-62
2020/12/20 04:37:07;;;;;;;44.42;23.52;;;;;;;4.56;72.17;96145.78;5049463;28;20292;-61
2020/12/20 04:39:53;;;;;;;44.97;23.52;;;;;;;4.48;72.50;96142.53;5048806;28;20645;-61
2020/12/20 04:42:26;;;;;;;41.92;22.30;;;;;;;4.40;72.91;96148.66;5047869;28;20227;-60
2020/12/20 04:44:53;;;;;;;45.05;24.20;;;;;;;4.37;73.05;96143.84;5064264;28;20204;-64
2020/12/20 04:47:23;;;;;;;48.15;23.35;;;;;;;4.49;72.89;96144.94;5048137;28;20200;-63
2020/12/20 04:49:53;;;;;;;51.72;24.45;;;;;;;4.52;72.21;96141.97;5047859;28;20224;-62
2020/12/20 04:52:25;;;;;;;45.47;24.33;;;;;;;4.53;72.73;96142.75;5049133;28;20282;-62
2020/12/20 04:54:55;;;;;;;49.92;24.83;;;;;;;4.57;72.79;96142.22;5052270;28;20227;-62
2020/12/20 04:57:42;;;;;;;46.20;23.63;;;;;;;4.55;72.74;96146.78;5053347;28;20273;-63
2020/12/20 05:00:13;;;;;;;48.33;23.98;;;;;;;4.58;72.65;96145.63;5051344;28;20197;-63
2020/12/20 05:02:40;;;;;;;46.47;24.48;;;;;;;4.62;72.67;96152.00;5052022;28;20220;-61
2020/12/20 05:05:11;;;;;;;45.83;24.00;;;;;;;4.53;72.77;96148.75;5051647;28;20654;-61
2020/12/20 05:07:38;;;;;;;44.00;23.73;;;;;;;4.54;72.45;96145.19;5051883;28;20205;-64
2020/12/20 05:10:08;;;;;;;43.15;23.35;;;;;;;4.47;72.45;96143.53;5067936;28;20204;-62
2020/12/20 05:12:42;;;;;;;44.80;23.50;;;;;;;4.46;72.66;96145.31;5053278;28;20212;-62
2020/12/20 05:15:24;;;;;;;47.38;23.83;;;;;;;4.59;72.79;96148.03;5051425;28;20203;-62
2020/12/20 05:18:21;;;;;;;46.40;22.90;;;;;;;4.55;72.88;96151.16;5052214;28;20231;-62
2020/12/20 05:20:59;;;;;;;43.83;23.50;;;;;;;4.61;72.70;96160.81;5068889;28;20200;-60
2020/12/20 05:23:30;;;;;;;48.25;24.60;;;;;;;4.63;72.86;96154.44;5051491;28;20299;-62
2020/12/20 05:26:31;;;;;;;47.22;22.52;;;;;;;4.58;72.75;96163.78;5044359;28;20332;-63
2020/12/20 05:29:11;;;;;;;44.47;22.52;;;;;;;4.60;72.80;96159.22;5050805;28;20671;-63
2020/12/20 05:31:43;;;;;;;46.28;22.67;;;;;;;4.54;73.12;96155.56;5051883;28;20208;-63
2020/12/20 05:34:22;;;;;;;47.45;23.38;;;;;;;4.48;73.31;96160.69;5051335;28;20256;-63
2020/12/20 05:36:51;;;;;;;44.78;22.67;;;;;;;4.53;73.40;96169.53;5051678;28;20817;-62
2020/12/20 05:39:43;;;;;;;41.67;22.27;;;;;;;4.55;73.03;96172.75;5055271;28;20616;-62
2020/12/20 05:42:33;;;;;;;43.80;22.85;;;;;;;4.53;73.33;96173.91;5068161;28;20212;-62
2020/12/20 05:45:10;;;;;;;45.00;23.20;;;;;;;4.56;73.04;96169.16;5050739;28;20262;-63
2020/12/20 05:47:50;;;;;;;43.97;22.90;;;;;;;4.49;73.04;96168.28;5052191;28;20192;-65
2020/12/20 05:50:17;;;;;;;40.97;21.90;;;;;;;4.60;73.15;96170.38;5050694;28;20214;-63
2020/12/20 05:53:00;;;;;;;45.13;22.88;;;;;;;4.66;72.91;96169.66;5051229;28;20192;-63
2020/12/20 05:55:39;;;;;;;46.67;23.15;;;;;;;4.51;73.20;96175.88;5053113;28;20291;-62
2020/12/20 05:58:12;;;;;;;44.85;23.20;;;;;;;4.49;73.11;96176.06;5053834;28;20200;-62
2020/12/20 06:00:45;;;;;;;45.10;23.10;;;;;;;4.51;73.26;96184.47;5053590;28;20242;-63
2020/12/20 06:03:12;;;;;;;44.38;22.45;;;;;;;4.53;73.05;96185.09;5052997;28;20620;-64
2020/12/20 06:05:46;;;;;;;44.65;23.30;;;;;;;4.42;73.27;96180.41;5051241;28;20183;-63
2020/12/20 06:08:13;;;;;;;42.88;22.45;;;;;;;4.52;73.38;96180.91;5052208;28;20235;-61
2020/12/20 06:10:46;;;;;;;43.50;22.70;;;;;;;4.58;73.10;96187.94;5051613;28;20291;-63
2020/12/20 06:13:18;;;;;;;46.83;23.65;;;;;;;4.64;73.07;96197.59;5052307;28;20201;-62
2020/12/20 06:15:50;;;;;;;48.05;23.95;;;;;;;4.72;72.81;96194.88;5053234;28;20207;-63
2020/12/20 06:18:23;;;;;;;43.45;22.63;;;;;;;4.75;72.82;96196.25;5050968;28;20185;-63
2020/12/20 06:21:02;;;;;;;45.03;23.75;;;;;;;4.67;72.75;96194.59;5052046;28;20207;-61
2020/12/20 06:23:34;;;;;;;47.42;24.30;;;;;;;4.56;73.38;96195.09;5051515;28;20254;-63
2020/12/20 06:26:03;;;;;;;44.42;23.67;;;;;;;4.65;72.76;96193.97;5051134;28;20192;-62
2020/12/20 06:28:31;;;;;;;41.63;22.63;;;;;;;4.59;73.09;96188.75;5051171;28;20203;-62
2020/12/20 06:31:01;;;;;;;43.67;22.50;;;;;;;4.50;73.33;96195.88;5051630;28;20204;-62
2020/12/20 06:33:45;;;;;;;41.58;22.45;;;;;;;4.23;73.49;96173.25;5050951;28;20240;-62
2020/12/20 06:36:16;;;;;;;42.97;22.85;;;;;;;4.47;73.10;96196.22;5050881;28;20227;-64
2020/12/20 06:38:55;;;;;;;45.63;23.27;;;;;;;4.38;73.90;96204.34;5051013;28;20672;-62
2020/12/20 06:41:40;;;;;;;42.08;21.48;;;;;;;4.43;73.50;96199.38;5051743;28;20208;-63
2020/12/20 06:44:13;;;;;;;53.08;22.60;;;;;;;4.36;73.76;96203.72;5051032;28;20208;-63
2020/12/20 06:46:40;;;;;;;43.50;22.63;;;;;;;4.40;74.03;96202.38;5050755;28;20746;-62
2020/12/20 06:49:36;;;;;;;44.78;22.40;;;;;;;4.45;73.40;96198.22;5050981;28;20172;-63
2020/12/20 06:52:22;;;;;;;39.22;20.73;;;;;;;4.59;73.34;96210.31;5051436;28;20647;-63
2020/12/20 06:55:04;;;;;;;46.25;22.15;;;;;;;4.61;72.90;96210.94;5050719;28;20266;-62
2020/12/20 06:57:31;;;;;;;36.72;19.98;;;;;;;4.67;72.52;96204.97;5050845;28;20200;-62
2020/12/20 06:59:59;;;;;;;39.15;20.40;;;;;;;4.67;72.39;96206.81;5050900;28;20223;-62
2020/12/20 07:02:47;;;;;;;36.17;20.15;;;;;;;4.76;72.38;96216.84;5051081;28;20215;-63
2020/12/20 07:05:41;;;;;;;35.85;19.55;;;;;;;4.83;72.12;96212.53;5050843;28;20208;-62
2020/12/20 07:08:13;;;;;;;36.58;19.40;;;;;;;4.86;71.70;96206.97;5050803;28;20193;-63
2020/12/20 07:10:44;;;;;;;34.63;19.65;;;;;;;4.83;71.57;96217.72;5050326;28;20307;-64
2020/12/20 07:13:12;;;;;;;38.28;20.02;;;;;;;4.92;71.43;96211.41;5050947;28;20193;-62
2020/12/20 07:15:46;;;;;;;37.35;20.02;;;;;;;4.99;71.33;96212.25;5049257;28;20290;-62
2020/12/20 07:18:38;;;;;;;33.78;18.95;;;;;;;4.95;70.94;96218.81;5050826;28;20294;-63
2020/12/20 07:21:04;;;;;;;33.90;19.20;;;;;;;4.96;70.74;96225.59;5050566;28;20655;-63
2020/12/20 07:23:31;;;;;;;32.30;18.02;;;;;;;4.94;70.95;96225.00;5050524;28;20209;-62
2020/12/20 07:25:58;;;;;;;32.40;18.55;;;;;;;5.07;70.76;96219.91;5050314;28;20674;-61
2020/12/20 07:28:24;;;;;;;35.03;18.70;;;;;;;5.08;70.43;96205.94;5050322;28;20220;-63
2020/12/20 07:30:51;;;;;;;32.20;19.40;;;;;;;5.14;70.12;96215.56;5050391;28;20539;-61
2020/12/20 07:33:18;;;;;;;36.38;20.38;;;;;;;5.15;70.33;96213.75;5050528;28;20608;-61
2020/12/20 07:35:47;;;;;;;36.05;20.38;;;;;;;5.03;70.10;96218.69;5050096;28;20287;-65
2020/12/20 07:38:14;;;;;;;33.90;19.15;;;;;;;5.10;70.43;96210.94;5050332;28;20193;-61
2020/12/20 07:40:41;;;;;;;32.63;18.98;;;;;;;5.15;70.29;96216.34;5048534;28;20189;-62
2020/12/20 07:43:07;;;;;;;34.70;18.90;;;;;;;5.05;69.89;96211.47;5049800;28;20200;-63
2020/12/20 07:45:34;;;;;;;30.55;18.45;;;;;;;5.15;69.84;96222.34;5049261;28;20203;-64
2020/12/20 07:48:01;;;;;;;32.60;18.70;;;;;;;5.14;69.65;96219.97;5064902;28;20634;-62
2020/12/20 07:50:27;;;;;;;32.65;18.90;;;;;;;5.17;69.50;96216.97;5048779;28;20199;-61
2020/12/20 07:52:54;;;;;;;33.05;18.35;;;;;;;5.22;69.03;96221.63;5050046;28;20219;-62
2020/12/20 07:55:20;;;;;;;27.00;17.10;;;;;;;5.15;69.28;96211.97;5049089;28;20189;-61
2020/12/20 07:57:48;;;;;;;38.13;19.27;;;;;;;4.88;69.72;96224.94;5049747;28;20199;-63
2020/12/20 08:00:15;;;;;;;31.52;18.88;;;;;;;5.08;69.65;96226.72;5049281;28;20290;-62
2020/12/20 08:02:42;;;;;;;32.85;18.60;;;;;;;5.18;69.45;96216.78;5049537;28;20196;-62
2020/12/20 08:05:14;;;;;;;34.58;19.50;;;;;;;5.15;69.37;96217.16;5049280;28;20185;-62
2020/12/20 08:07:40;;;;;;;37.58;20.40;;;;;;;5.20;69.30;96208.00;5049926;28;20670;-61
2020/12/20 08:10:07;;;;;;;36.42;20.40;;;;;;;5.03;68.74;96218.69;5048355;28;20657;-63
2020/12/20 08:12:33;;;;;;;36.00;20.38;;;;;;;5.14;68.96;96214.75;5050235;28;20192;-62
2020/12/20 08:15:08;;;;;;;39.67;21.02;;;;;;;5.22;69.20;96212.00;5048962;28;20223;-63
2020/12/20 08:17:35;;;;;;;39.03;22.23;;;;;;;5.28;69.25;96220.84;5049655;28;20203;-62
2020/12/20 08:20:05;;;;;;;37.03;20.35;;;;;;;5.15;68.97;96198.97;5048958;28;20508;-62
2020/12/20 08:22:33;;;;;;;36.40;21.08;;;;;;;5.28;69.89;96215.63;5049197;28;20267;-64
2020/12/20 08:25:07;;;;;;;34.40;20.15;;;;;;;5.40;69.00;96219.31;5049081;28;20185;-63
2020/12/20 08:27:37;;;;;;;35.75;19.83;;;;;;;5.41;68.51;96210.53;5049184;28;20743;-63
2020/12/20 08:30:07;;;;;;;32.58;19.23;;;;;;;4.94;67.89;96146.28;5031295;28;20201;-65
2020/12/20 08:32:38;;;;;;;36.08;19.92;;;;;;;5.45;68.16;96222.16;5040544;28;20311;-64
2020/12/20 08:35:16;;;;;;;34.28;19.13;;;;;;;5.41;68.07;96224.34;5046923;28;20694;-63
2020/12/20 08:37:50;;;;;;;35.42;20.35;;;;;;;5.45;67.93;96227.34;5049228;28;20287;-62
2020/12/20 08:40:17;;;;;;;34.22;19.80;;;;;;;5.37;67.96;96214.50;5046283;28;20218;-62
2020/12/20 08:42:46;;;;;;;150.05;78.90;;;;;;;5.47;68.41;96226.19;5048237;28;20323;-63
2020/12/20 08:45:16;;;;;;;45.78;26.45;;;;;;;5.58;67.87;96217.84;5047917;28;20192;-63
2020/12/20 08:47:44;;;;;;;34.33;19.42;;;;;;;5.43;67.40;96213.75;5049010;28;20211;-65
2020/12/20 08:50:12;;;;;;;37.05;21.20;;;;;;;5.39;67.80;96215.09;5049802;28;20691;-61
2020/12/20 08:52:38;;;;;;;35.03;19.83;;;;;;;5.33;68.15;96218.50;5049382;28;20211;-63
2020/12/20 08:55:06;;;;;;;36.80;20.60;;;;;;;5.09;68.62;96209.34;5047029;28;20236;-63
2020/12/20 08:57:34;;;;;;;34.70;19.50;;;;;;;5.07;68.73;96209.50;5048383;28;20730;-64
2020/12/20 09:00:12;;;;;;;36.30;19.52;;;;;;;4.89;68.64;96211.75;5047152;28;20196;-65
2020/12/20 09:02:40;;;;;;;37.88;19.63;;;;;;;5.05;68.58;96216.69;5047989;28;20654;-64
2020/12/20 09:05:11;;;;;;;39.10;20.27;;;;;;;5.06;68.42;96209.69;5048079;28;20189;-62
2020/12/20 09:07:40;;;;;;;38.03;20.45;;;;;;;5.29;68.51;96217.25;5048133;28;20177;-62
2020/12/20 09:10:11;;;;;;;36.60;21.05;;;;;;;5.29;68.37;96206.88;5047742;28;20199;-64
2020/12/20 09:12:48;;;;;;;36.67;20.17;;;;;;;5.49;68.58;96210.38;5048862;28;20189;-64
2020/12/20 09:15:17;;;;;;;165.98;94.97;;;;;;;5.70;68.05;96210.28;5047690;28;20303;-62
2020/12/20 09:17:46;;;;;;;46.80;27.42;;;;;;;5.74;68.04;96211.50;5048447;28;20210;-65
2020/12/20 09:20:15;;;;;;;33.28;19.48;;;;;;;5.63;67.34;96210.25;5047603;28;20913;-62
2020/12/20 09:22:44;;;;;;;38.17;20.30;;;;;;;5.79;67.14;96203.91;5046936;28;20635;-63
2020/12/20 09:25:12;;;;;;;30.83;18.55;;;;;;;5.75;67.22;96202.69;5045146;28;20732;-63
2020/12/20 09:27:50;;;;;;;30.00;18.05;;;;;;;5.72;66.77;96208.28;5047137;28;20192;-62
2020/12/20 09:30:27;;;;;;;31.33;17.50;;;;;;;5.72;66.79;96198.69;5046579;28;20193;-65
2020/12/20 09:32:54;;;;;;;32.95;18.42;;;;;;;5.67;66.87;96195.88;5046108;28;20358;-65
2020/12/20 09:35:20;;;;;;;30.85;18.35;;;;;;;5.74;66.87;96201.91;5043391;28;20561;-63
2020/12/20 09:37:47;;;;;;;31.30;17.90;;;;;;;5.90;66.72;96193.81;5048004;28;20195;-61
2020/12/20 09:40:13;;;;;;;28.70;17.38;;;;;;;5.85;66.53;96197.97;5048565;28;20200;-66
2020/12/20 09:42:42;;;;;;;31.10;18.58;;;;;;;5.93;66.68;96195.22;5050217;28;20270;-65
2020/12/20 09:45:10;;;;;;;30.67;17.77;;;;;;;5.74;66.09;96196.72;5049539;28;20245;-65
2020/12/20 09:47:39;;;;;;;34.08;17.67;;;;;;;5.79;66.02;96198.72;5050577;28;20280;-63
2020/12/20 09:50:06;;;;;;;35.17;19.40;;;;;;;5.78;66.11;96197.13;5051136;28;20200;-64
2020/12/20 09:52:33;;;;;;;28.20;16.65;;;;;;;5.64;65.98;96196.25;5050863;28;20192;-63
2020/12/20 09:55:04;;;;;;;32.85;18.55;;;;;;;5.63;66.25;96191.25;5051253;28;20208;-65
2020/12/20 09:57:31;;;;;;;32.40;18.58;;;;;;;5.42;66.58;96189.53;5051492;28;20707;-62
2020/12/20 09:59:57;;;;;;;33.03;18.40;;;;;;;5.59;66.45;96187.41;5050600;28;20200;-64
2020/12/20 10:02:23;;;;;;;36.38;21.85;;;;;;;5.46;66.58;96192.53;5051328;28;20200;-63
2020/12/20 10:04:50;;;;;;;34.75;19.27;;;;;;;5.72;66.72;96192.69;5050810;28;20778;-64
2020/12/20 10:07:16;;;;;;;28.45;17.70;;;;;;;5.77;66.30;96195.50;5051583;28;20686;-64
2020/12/20 10:09:43;;;;;;;24.52;15.73;;;;;;;5.86;65.67;96199.56;5049496;28;20191;-66
2020/12/20 10:12:09;;;;;;;28.58;17.88;;;;;;;5.88;65.62;96197.59;5049342;28;20185;-63
2020/12/20 10:14:37;;;;;;;29.30;17.23;;;;;;;5.92;65.36;96180.59;5050106;28;20716;-65
2020/12/20 10:17:03;;;;;;;28.60;17.23;;;;;;;5.91;65.34;96186.81;5051617;28;20201;-65
2020/12/20 10:19:30;;;;;;;32.30;18.05;;;;;;;5.79;65.76;96183.09;5050890;28;20198;-63
2020/12/20 10:21:56;;;;;;;30.58;18.58;;;;;;;5.82;65.59;96180.13;5050888;28;20682;-62
2020/12/20 10:24:22;;;;;;;26.25;16.52;;;;;;;5.48;66.05;96186.16;5050488;28;20314;-63
2020/12/20 10:26:49;;;;;;;27.02;16.50;;;;;;;5.47;65.49;96183.78;5049066;28;20705;-66
2020/12/20 10:29:17;;;;;;;29.38;18.05;;;;;;;5.44;66.19;96184.16;5052272;28;20184;-62
2020/12/20 10:31:45;;;;;;;29.05;17.88;;;;;;;5.30;66.22;96180.69;5051408;28;20193;-65
2020/12/20 10:34:13;;;;;;;32.72;17.95;;;;;;;5.27;66.53;96180.25;5050046;28;20228;-62
2020/12/20 10:36:39;;;;;;;26.65;17.15;;;;;;;4.92;67.27;96169.84;5051160;28;20276;-61
2020/12/20 10:39:07;;;;;;;29.35;18.05;;;;;;;5.05;66.73;96172.50;5050632;28;20302;-62
2020/12/20 10:41:35;;;;;;;32.00;18.95;;;;;;;5.19;67.14;96173.41;5050909;28;20197;-63
2020/12/20 10:44:02;;;;;;;30.42;18.48;;;;;;;5.21;67.75;96142.84;5050223;28;20232;-64
2020/12/20 10:46:29;;;;;;;27.75;17.48;;;;;;;5.43;67.21;96166.94;5052235;28;20181;-64
2020/12/20 10:48:55;;;;;;;32.03;18.52;;;;;;;5.41;66.37;96174.94;5050085;28;20200;-63
2020/12/20 10:51:22;;;;;;;29.65;17.48;;;;;;;5.21;66.65;96163.63;5050776;28;20521;-63
2020/12/20 10:53:50;;;;;;;29.65;17.77;;;;;;;4.98;67.30;96163.09;5048985;28;20616;-63
2020/12/20 10:56:21;;;;;;;27.15;17.90;;;;;;;5.19;67.13;96170.81;5049376;28;20196;-65
2020/12/20 10:58:48;;;;;;;33.22;17.52;;;;;;;5.10;67.25;96166.75;5048811;28;20258;-63
2020/12/20 11:01:19;;;;;;;27.77;17.17;;;;;;;5.05;67.42;96162.13;5050580;28;20206;-61
2020/12/20 11:03:46;;;;;;;24.85;15.63;;;;;;;4.70;67.87;96160.50;5050000;28;20227;-66
2020/12/20 11:06:20;;;;;;;30.08;17.08;;;;;;;4.85;68.26;96158.59;5050254;28;20208;-64
2020/12/20 11:08:47;;;;;;;27.52;16.92;;;;;;;4.73;68.41;96148.91;5050906;28;20647;-62
2020/12/20 11:11:14;;;;;;;26.98;17.25;;;;;;;4.62;68.56;96154.63;5050880;28;20212;-65
2020/12/20 11:13:45;;;;;;;27.50;16.35;;;;;;;4.51;68.86;96165.50;5049563;28;20208;-62
2020/12/20 11:16:16;;;;;;;28.70;17.27;;;;;;;4.71;68.90;96151.69;5049921;28;20313;-63
2020/12/20 11:18:45;;;;;;;27.00;17.08;;;;;;;4.46;69.69;96139.31;5049307;28;20677;-67
2020/12/20 11:21:16;;;;;;;30.73;18.48;;;;;;;4.59;69.53;96150.63;5050006;28;20303;-67
2020/12/20 11:23:44;;;;;;;32.58;18.25;;;;;;;4.62;69.53;96152.81;5049500;28;20215;-65
2020/12/20 11:26:11;;;;;;;32.75;18.90;;;;;;;4.97;68.88;96156.28;5050153;28;20211;-62
2020/12/20 11:28:40;;;;;;;27.30;16.98;;;;;;;5.10;68.41;96157.19;5048944;28;20211;-64
2020/12/20 11:31:08;;;;;;;146.52;80.10;;;;;;;5.18;68.56;96164.81;5050320;28;20878;-62
2020/12/20 11:33:34;;;;;;;47.60;28.05;;;;;;;5.22;67.76;96161.84;5049413;28;20236;-66
2020/12/20 11:36:03;;;;;;;31.30;18.35;;;;;;;5.04;67.75;96163.13;5049960;28;20279;-62
2020/12/20 11:38:30;;;;;;;30.67;17.85;;;;;;;4.80;68.13;96155.75;5049489;28;20184;-64
2020/12/20 11:40:56;;;;;;;30.67;18.98;;;;;;;4.95;68.06;96138.28;5049593;28;20205;-65